Time;durP1;ratioP1;P1;durP2;ratioP2;P2;SDS_P1;SDS_P2;PMS_P1;PMS_P2;Temp;Humidity;BMP_temperature;BMP_pressure;BME280_temperature;BME280_humidity;BME280_pressure;Samples;Min_cycle;Max_cycle;Signal;HPM_P1;HPM_P2
2022/09/29 00:00:48;;;;;;;4.95;2.05;;;;;;;14.68;77.53;99516.72;6252176;22;20019;-66
2022/09/29 00:03:16;;;;;;;6.68;2.10;;;;;;;14.17;75.40;99516.16;6277773;22;20016;-67
2022/09/29 00:05:52;;;;;;;13.38;2.15;;;;;;;14.47;78.74;99506.84;6279688;22;20340;-68
2022/09/29 00:08:21;;;;;;;7.45;2.20;;;;;;;14.34;77.65;99512.94;6277867;22;20466;-66
2022/09/29 00:10:49;;;;;;;6.35;2.15;;;;;;;13.82;74.25;99524.53;6278299;22;20470;-66
2022/09/29 00:13:17;;;;;;;7.68;2.00;;;;;;;13.39;76.85;99522.00;6279691;22;20030;-65
2022/09/29 00:15:44;;;;;;;6.45;2.72;;;;;;;13.70;80.22;99516.38;6249479;22;20479;-67
2022/09/29 00:18:12;;;;;;;5.15;1.70;;;;;;;14.12;81.72;99511.69;6252223;22;20012;-67
2022/09/29 00:20:41;;;;;;;5.25;1.60;;;;;;;14.39;79.16;99507.91;6249597;22;20352;-65
2022/09/29 00:23:08;;;;;;;5.55;2.30;;;;;;;14.30;78.46;99506.53;6279314;22;20038;-66
2022/09/29 00:25:36;;;;;;;7.60;2.05;;;;;;;14.16;77.66;99504.25;6278184;22;20027;-66
2022/09/29 00:28:03;;;;;;;5.97;1.83;;;;;;;14.19;79.02;99511.06;6277999;22;20357;-66
2022/09/29 00:30:30;;;;;;;6.20;1.80;;;;;;;14.31;79.75;99508.91;6278136;22;20030;-65
2022/09/29 00:32:58;;;;;;;6.10;2.17;;;;;;;14.58;79.66;99512.59;6278765;22;20016;-65
2022/09/29 00:35:25;;;;;;;4.68;2.05;;;;;;;14.38;77.06;99509.06;6261545;22;20011;-66
2022/09/29 00:37:52;;;;;;;4.72;1.80;;;;;;;14.46;78.63;99510.81;6251410;22;20020;-66
2022/09/29 00:40:20;;;;;;;6.22;2.00;;;;;;;14.36;78.31;99505.88;6278498;22;20018;-66
2022/09/29 00:42:47;;;;;;;8.55;2.72;;;;;;;14.07;78.20;99500.13;6277221;22;20016;-65
2022/09/29 00:45:18;;;;;;;6.00;1.80;;;;;;;14.22;78.88;99502.81;6251247;22;20019;-66
2022/09/29 00:47:51;;;;;;;6.07;2.40;;;;;;;14.08;78.43;99505.31;6277457;22;20015;-65
2022/09/29 00:50:23;;;;;;;5.43;2.30;;;;;;;14.08;77.72;99499.75;6225378;22;20320;-66
2022/09/29 00:52:57;;;;;;;6.30;2.08;;;;;;;14.35;80.54;99492.38;6227408;22;20038;-66
2022/09/29 00:55:30;;;;;;;7.13;1.88;;;;;;;14.53;78.62;99494.31;6278379;22;20016;-66
2022/09/29 00:58:12;;;;;;;8.02;2.80;;;;;;;14.54;77.59;99492.31;6277786;22;20020;-66
2022/09/29 01:00:40;;;;;;;5.32;1.80;;;;;;;14.66;78.48;99484.63;6200341;22;20019;-66
2022/09/29 01:03:11;;;;;;;6.10;2.10;;;;;;;14.84;78.76;99486.88;6279411;22;20340;-65
2022/09/29 01:05:43;;;;;;;9.07;1.95;;;;;;;14.28;73.22;99486.69;6251077;22;20094;-66
2022/09/29 01:08:15;;;;;;;6.53;1.90;;;;;;;13.23;75.02;99491.63;6279038;22;20016;-67
2022/09/29 01:10:43;;;;;;;7.32;1.98;;;;;;;13.36;81.70;99489.53;6251283;22;20463;-65
2022/09/29 01:13:10;;;;;;;5.28;2.00;;;;;;;13.87;80.96;99491.03;6250577;22;20020;-67
2022/09/29 01:15:37;;;;;;;8.63;2.30;;;;;;;13.61;78.34;99490.88;6278267;22;20024;-65
2022/09/29 01:18:05;;;;;;;6.97;2.17;;;;;;;13.73;78.05;99482.44;6225541;22;20016;-66
2022/09/29 01:20:38;;;;;;;7.03;2.22;;;;;;;13.18;75.32;99478.06;6278482;22;20489;-66
2022/09/29 01:23:43;;;;;;;5.70;2.00;;;;;;;13.19;79.86;99470.59;6251242;22;20020;-66
2022/09/29 01:26:26;;;;;;;6.10;2.10;;;;;;;13.77;81.17;99466.72;6277882;22;20023;-66
2022/09/29 01:29:31;;;;;;;6.75;2.45;;;;;;;13.80;79.77;99468.75;6277375;22;20015;-66
2022/09/29 01:32:16;;;;;;;6.82;2.15;;;;;;;14.19;81.42;99466.75;6278431;22;20016;-66
2022/09/29 01:34:56;;;;;;;5.57;1.80;;;;;;;13.99;79.60;99456.84;6277248;22;20393;-66
2022/09/29 01:37:45;;;;;;;7.38;2.30;;;;;;;13.76;75.90;99458.75;6249709;22;20019;-67
2022/09/29 01:40:42;;;;;;;9.50;2.10;;;;;;;13.54;78.20;99469.41;6251150;22;20519;-65
2022/09/29 01:43:37;;;;;;;6.57;1.98;;;;;;;14.04;81.10;99471.19;6169558;22;20029;-66
2022/09/29 01:46:13;;;;;;;5.03;2.08;;;;;;;13.85;78.39;99468.44;6246525;22;20019;-66
2022/09/29 01:48:50;;;;;;;5.25;1.90;;;;;;;13.85;77.29;99470.41;6250694;22;20018;-65
2022/09/29 01:51:24;;;;;;;6.85;2.00;;;;;;;13.80;77.12;99474.28;6252139;22;20024;-66
2022/09/29 01:53:55;;;;;;;10.98;2.33;;;;;;;13.60;76.57;99472.66;6199306;22;20023;-65
2022/09/29 01:56:36;;;;;;;6.78;2.13;;;;;;;13.56;77.35;99482.88;6201652;22;20015;-66
2022/09/29 01:59:14;;;;;;;6.50;2.33;;;;;;;13.75;77.40;99477.34;6248977;22;20027;-66
2022/09/29 02:01:42;;;;;;;4.40;2.00;;;;;;;13.90;78.12;99476.47;6278068;22;20016;-67
2022/09/29 02:04:16;;;;;;;5.60;1.90;;;;;;;13.90;77.62;99472.88;6277366;22;20022;-66
2022/09/29 02:06:59;;;;;;;4.95;1.90;;;;;;;13.91;78.60;99475.31;6251465;22;20015;-66
2022/09/29 02:09:32;;;;;;;5.47;2.20;;;;;;;13.77;76.65;99476.97;6277966;22;20012;-66
2022/09/29 02:12:00;;;;;;;5.15;1.98;;;;;;;14.03;79.29;99475.16;6249690;22;20020;-65
2022/09/29 02:14:30;;;;;;;5.88;1.98;;;;;;;13.97;77.39;99479.38;6251070;22;20028;-66
2022/09/29 02:17:06;;;;;;;7.43;2.13;;;;;;;14.04;78.59;99482.28;6276614;22;20026;-65
2022/09/29 02:19:36;;;;;;;5.13;2.15;;;;;;;14.17;78.62;99482.91;6278444;22;20020;-66
2022/09/29 02:22:03;;;;;;;5.72;2.20;;;;;;;13.83;76.66;99479.09;6277757;22;20022;-66
2022/09/29 02:24:31;;;;;;;6.47;1.95;;;;;;;14.16;79.33;99484.06;6225121;22;20031;-66
2022/09/29 02:26:59;;;;;;;5.65;2.00;;;;;;;14.08;78.21;99480.38;6287522;22;20016;-66
2022/09/29 02:29:27;;;;;;;6.07;1.90;;;;;;;14.27;78.65;99474.03;6249968;22;20031;-66
2022/09/29 02:31:56;;;;;;;6.95;2.00;;;;;;;14.25;78.06;99482.69;6249474;22;20020;-65
2022/09/29 02:34:23;;;;;;;6.90;1.60;;;;;;;14.25;76.83;99476.34;6278804;22;20380;-66
2022/09/29 02:36:58;;;;;;;6.25;2.10;;;;;;;14.10;74.14;99485.56;6249993;22;20016;-65
2022/09/29 02:39:34;;;;;;;4.90;1.90;;;;;;;13.85;74.02;99478.72;6251060;22;20344;-65
2022/09/29 02:42:36;;;;;;;4.25;2.10;;;;;;;14.01;77.56;99474.72;6250433;22;20039;-65
2022/09/29 02:45:34;;;;;;;11.45;1.83;;;;;;;13.50;75.49;99478.78;6277579;22;20022;-65
2022/09/29 02:48:04;;;;;;;8.07;2.50;;;;;;;13.50;79.29;99470.47;6278300;22;20016;-66
2022/09/29 02:50:55;;;;;;;4.78;1.52;;;;;;;13.56;80.63;99477.34;6248726;22;20321;-66
2022/09/29 02:54:00;;;;;;;7.28;1.85;;;;;;;14.01;80.39;99474.72;6251885;22;20015;-66
2022/09/29 02:56:33;;;;;;;3.55;1.65;;;;;;;13.93;77.69;99472.94;6211395;22;20019;-66
2022/09/29 02:59:14;;;;;;;5.00;1.95;;;;;;;13.97;78.80;99467.47;6250222;22;20031;-66
2022/09/29 03:01:51;;;;;;;7.78;2.08;;;;;;;14.13;79.37;99471.78;6199796;22;20540;-67
2022/09/29 03:04:20;;;;;;;8.57;2.10;;;;;;;14.14;78.33;99465.06;6277016;22;20016;-67
2022/09/29 03:06:48;;;;;;;5.65;2.10;;;;;;;14.24;78.23;99461.66;6280187;22;20020;-65
2022/09/29 03:09:15;;;;;;;7.78;1.95;;;;;;;14.07;78.45;99458.59;6279317;22;20404;-66
2022/09/29 03:11:43;;;;;;;8.40;1.98;;;;;;;14.11;79.00;99456.69;6278908;22;20029;-67
2022/09/29 03:14:12;;;;;;;5.00;1.80;;;;;;;14.17;78.56;99458.81;6279101;22;20018;-66
2022/09/29 03:16:41;;;;;;;7.40;2.00;;;;;;;13.83;76.72;99459.72;6279272;22;20026;-67
2022/09/29 03:19:08;;;;;;;7.13;1.90;;;;;;;14.15;78.91;99454.78;6227714;22;20020;-66
2022/09/29 03:21:35;;;;;;;5.40;2.08;;;;;;;14.31;79.52;99459.06;6279539;22;20020;-66
2022/09/29 03:24:03;;;;;;;7.70;1.88;;;;;;;14.28;78.64;99461.78;6279554;22;20328;-66
2022/09/29 03:26:30;;;;;;;6.57;2.20;;;;;;;14.14;77.98;99461.50;6251941;22;20461;-66
2022/09/29 03:28:59;;;;;;;7.32;2.08;;;;;;;14.20;77.83;99460.84;6279957;22;20016;-66
2022/09/29 03:31:26;;;;;;;5.72;2.08;;;;;;;14.17;77.76;99458.00;6250397;22;20016;-66
2022/09/29 03:33:53;;;;;;;7.25;2.00;;;;;;;14.04;78.54;99462.91;6280324;22;20020;-66
2022/09/29 03:36:20;;;;;;;4.13;1.83;;;;;;;14.28;80.47;99462.59;6200196;22;20019;-65
2022/09/29 03:38:48;;;;;;;8.40;2.10;;;;;;;14.10;77.05;99455.09;6253466;22;20019;-66
2022/09/29 03:41:15;;;;;;;5.00;2.17;;;;;;;14.14;78.30;99453.19;6225321;22;20026;-65
2022/09/29 03:43:42;;;;;;;7.60;2.15;;;;;;;14.18;78.97;99454.84;6279794;22;20012;-66
2022/09/29 03:46:10;;;;;;;4.97;1.88;;;;;;;14.24;78.88;99458.13;6251011;22;20032;-66
2022/09/29 03:48:38;;;;;;;4.13;1.65;;;;;;;14.36;79.42;99460.75;6280082;22;20026;-65
2022/09/29 03:51:05;;;;;;;4.57;1.80;;;;;;;14.32;78.66;99466.22;6278251;22;20008;-67
2022/09/29 03:53:34;;;;;;;7.25;2.13;;;;;;;14.41;78.98;99461.25;6280092;22;20016;-66
2022/09/29 03:56:02;;;;;;;10.60;2.10;;;;;;;14.36;78.61;99457.97;6250453;22;20027;-68
2022/09/29 03:58:30;;;;;;;5.10;2.08;;;;;;;14.42;78.92;99448.97;6280355;22;20019;-65
2022/09/29 04:00:57;;;;;;;4.50;1.90;;;;;;;14.30;79.68;99451.13;6278335;22;20012;-65
2022/09/29 04:03:24;;;;;;;7.35;2.20;;;;;;;14.32;79.58;99457.91;6251170;22;20050;-65
2022/09/29 04:05:52;;;;;;;6.45;2.00;;;;;;;14.35;79.75;99459.13;6279221;22;20024;-66
2022/09/29 04:08:19;;;;;;;6.03;2.50;;;;;;;13.89;76.80;99460.22;6252620;22;20051;-66
2022/09/29 04:10:47;;;;;;;6.40;2.25;;;;;;;14.15;80.68;99461.13;6251804;22;20031;-67
2022/09/29 04:13:14;;;;;;;6.85;2.15;;;;;;;14.11;78.90;99453.91;6279851;22;20119;-66
2022/09/29 04:15:49;;;;;;;6.45;2.60;;;;;;;13.51;77.00;99463.81;6277568;22;20024;-67
2022/09/29 04:18:16;;;;;;;;;;;;;;;13.65;80.51;99468.81;6253526;22;20016;-66
2022/09/29 04:20:43;;;;;;;6.10;1.92;;;;;;;13.71;82.19;99468.16;6278773;22;19915;-67
2022/09/29 04:23:11;;;;;;;5.80;2.17;;;;;;;13.40;80.43;99474.63;6279190;22;20023;-67
2022/09/29 04:25:39;;;;;;;8.05;2.60;;;;;;;13.19;80.36;99470.59;6250710;22;20028;-66
2022/09/29 04:28:06;;;;;;;5.53;2.00;;;;;;;13.67;83.47;99472.81;6277726;22;20020;-66
2022/09/29 04:30:33;;;;;;;6.95;2.78;;;;;;;13.69;81.90;99486.28;6251817;22;20024;-66
2022/09/29 04:33:00;;;;;;;7.15;2.40;;;;;;;13.43;79.00;99478.63;6226289;22;20030;-66
2022/09/29 04:35:27;;;;;;;5.43;2.67;;;;;;;13.74;81.77;99478.50;6279259;22;20439;-66
2022/09/29 04:37:59;;;;;;;8.43;2.75;;;;;;;13.88;80.87;99472.47;6278492;22;20399;-66
2022/09/29 04:40:27;;;;;;;9.05;2.33;;;;;;;13.98;80.69;99474.63;6277908;22;20021;-67
2022/09/29 04:42:54;;;;;;;11.27;2.40;;;;;;;13.77;80.49;99483.31;6250986;22;20853;-66
2022/09/29 04:45:21;;;;;;;6.10;2.10;;;;;;;13.87;82.09;99476.38;6278034;22;20025;-67
2022/09/29 04:47:49;;;;;;;6.70;2.53;;;;;;;14.03;81.52;99483.47;6252815;22;20470;-66
2022/09/29 04:50:16;;;;;;;6.88;2.72;;;;;;;13.86;81.06;99472.03;6277241;22;20012;-66
2022/09/29 04:52:44;;;;;;;7.20;2.42;;;;;;;14.10;81.92;99475.28;6279296;22;20024;-66
2022/09/29 04:55:11;;;;;;;8.23;2.13;;;;;;;14.14;81.03;99472.59;6278720;22;20112;-66
2022/09/29 04:57:40;;;;;;;7.38;2.58;;;;;;;14.22;80.85;99483.41;6224849;22;20026;-66
2022/09/29 05:00:09;;;;;;;11.35;2.65;;;;;;;14.29;80.26;99478.06;6278438;22;20022;-65
2022/09/29 05:02:37;;;;;;;13.32;2.60;;;;;;;14.19;79.63;99478.59;6276442;22;20026;-66
2022/09/29 05:05:05;;;;;;;7.47;2.38;;;;;;;14.31;80.84;99484.00;6252713;22;20030;-66
2022/09/29 05:07:36;;;;;;;6.45;2.53;;;;;;;14.43;80.59;99481.06;6277768;22;20478;-66
2022/09/29 05:10:03;;;;;;;5.82;2.60;;;;;;;14.49;79.89;99481.53;6279176;22;20016;-66
2022/09/29 05:12:31;;;;;;;6.97;2.20;;;;;;;14.42;79.28;99486.97;6276992;22;20400;-66
2022/09/29 05:14:58;;;;;;;5.13;2.10;;;;;;;14.37;79.16;99479.75;6225000;22;20024;-66
2022/09/29 05:17:25;;;;;;;7.30;2.55;;;;;;;14.26;79.69;99472.44;6252911;22;20016;-66
2022/09/29 05:19:53;;;;;;;10.35;2.65;;;;;;;14.34;80.67;99474.97;6251351;22;20012;-65
2022/09/29 05:22:23;;;;;;;6.90;2.45;;;;;;;14.36;79.67;99466.28;6277994;22;20024;-66
2022/09/29 05:24:51;;;;;;;;;;;;;;;14.36;79.55;99475.41;6278920;22;20494;-67
2022/09/29 05:27:18;;;;;;;10.93;3.13;;;;;;;14.11;78.28;99478.84;6250111;22;19915;-61
2022/09/29 05:29:46;;;;;;;6.53;2.28;;;;;;;14.17;81.33;99475.41;6279080;22;20026;-60
2022/09/29 05:32:13;;;;;;;7.38;2.53;;;;;;;14.31;80.57;99474.91;6250584;22;20016;-62
2022/09/29 05:34:40;;;;;;;12.20;3.20;;;;;;;14.22;79.73;99483.41;6277761;22;20034;-60
2022/09/29 05:37:08;;;;;;;12.15;3.33;;;;;;;14.32;80.62;99491.16;6251797;22;20016;-61
2022/09/29 05:39:36;;;;;;;8.10;3.05;;;;;;;14.38;80.63;99488.88;6277426;22;20471;-63
2022/09/29 05:42:05;;;;;;;7.97;2.85;;;;;;;14.39;81.36;99498.78;6278308;22;20462;-62
2022/09/29 05:44:32;;;;;;;6.78;3.03;;;;;;;14.39;81.00;99496.00;6276083;22;20354;-60
2022/09/29 05:47:00;;;;;;;9.52;2.85;;;;;;;14.21;79.98;99494.88;6249614;22;20019;-62
2022/09/29 05:49:27;;;;;;;13.25;7.30;;;;;;;14.25;81.25;99498.50;6277436;22;20023;-61
2022/09/29 05:51:54;;;;;;;10.80;6.00;;;;;;;14.39;80.78;99498.78;6250168;22;20019;-60
2022/09/29 05:54:22;;;;;;;13.70;6.95;;;;;;;14.48;81.07;99493.81;6278261;22;20011;-60
2022/09/29 05:56:50;;;;;;;14.27;8.00;;;;;;;14.13;78.61;99495.88;6276372;22;20343;-59
2022/09/29 05:59:17;;;;;;;10.63;4.32;;;;;;;14.15;80.03;99491.59;6278211;22;20144;-60
2022/09/29 06:01:44;;;;;;;9.70;4.00;;;;;;;14.19;80.00;99484.13;6276625;22;20058;-61
2022/09/29 06:04:12;;;;;;;10.73;3.05;;;;;;;14.03;81.11;99490.94;6250953;22;20022;-60
2022/09/29 06:06:39;;;;;;;10.10;2.95;;;;;;;13.90;79.94;99500.56;6251685;22;20016;-60
2022/09/29 06:09:07;;;;;;;7.75;3.20;;;;;;;13.94;81.18;99499.47;6277854;22;20026;-60
2022/09/29 06:11:34;;;;;;;11.00;3.55;;;;;;;14.08;81.39;99498.97;6277606;22;20336;-61
2022/09/29 06:14:02;;;;;;;7.97;3.25;;;;;;;13.64;78.30;99503.19;6278611;22;20020;-66
2022/09/29 06:16:30;;;;;;;8.43;3.60;;;;;;;13.94;82.67;99504.22;6277579;22;20020;-66
2022/09/29 06:19:00;;;;;;;7.95;3.10;;;;;;;13.77;81.32;99499.13;6251147;22;20189;-66
2022/09/29 06:21:29;;;;;;;13.75;3.70;;;;;;;14.08;81.86;99496.19;6277854;22;20022;-67
2022/09/29 06:23:57;;;;;;;9.10;3.13;;;;;;;14.07;81.09;99500.91;6278700;22;20031;-67
2022/09/29 06:26:25;;;;;;;7.68;3.10;;;;;;;13.95;82.64;99501.06;6278227;22;20016;-66
2022/09/29 06:28:53;;;;;;;11.35;3.42;;;;;;;13.89;82.98;99497.00;6278558;22;20026;-61
2022/09/29 06:31:23;;;;;;;11.18;3.38;;;;;;;14.04;82.65;99503.63;6277536;22;20360;-59
2022/09/29 06:33:51;;;;;;;8.30;3.10;;;;;;;13.97;82.64;99511.78;6278554;22;20030;-61
2022/09/29 06:39:16;;;;;;;19.52;5.00;;;;;;;14.38;82.88;99505.50;6227346;22;20031;-60
2022/09/29 06:41:55;;;;;;;17.23;3.97;;;;;;;14.55;82.24;99503.06;6277071;22;20018;-58
2022/09/29 06:44:24;;;;;;;8.60;3.72;;;;;;;14.13;79.37;99506.97;6221758;22;20016;-66
2022/09/29 06:46:53;;;;;;;16.92;8.93;;;;;;;14.23;82.22;99507.16;6276588;22;20479;-66
2022/09/29 06:49:21;;;;;;;21.17;11.93;;;;;;;14.39;80.94;99505.13;6276912;22;20026;-65
2022/09/29 06:51:49;;;;;;;9.35;3.88;;;;;;;14.17;80.92;99510.63;6249498;22;20020;-64
2022/09/29 06:54:21;;;;;;;9.30;3.92;;;;;;;13.71;77.21;99511.63;6276479;22;20016;-66
2022/09/29 06:56:49;;;;;;;8.18;3.40;;;;;;;14.22;84.37;99504.78;6250218;22;20016;-65
2022/09/29 06:59:16;;;;;;;20.60;4.03;;;;;;;14.42;81.76;99509.13;6276398;22;20018;-67
2022/09/29 07:01:48;;;;;;;10.05;3.67;;;;;;;14.58;80.96;99513.41;6249070;22;20012;-65
2022/09/29 07:04:16;;;;;;;11.95;4.03;;;;;;;14.71;79.85;99511.25;6222525;22;20016;-65
2022/09/29 07:06:44;;;;;;;11.80;3.97;;;;;;;14.80;78.58;99525.66;6275590;22;20392;-65
2022/09/29 07:09:14;;;;;;;13.70;4.03;;;;;;;14.84;77.21;99529.28;6276531;22;20019;-66
2022/09/29 07:11:50;;;;;;;11.18;3.78;;;;;;;14.84;75.23;99515.41;6224624;22;20015;-65
2022/09/29 07:14:21;;;;;;;9.07;3.95;;;;;;;14.88;74.73;99516.28;6277439;22;20019;-61
2022/09/29 07:16:49;;;;;;;8.95;3.85;;;;;;;14.81;74.13;99515.34;6224188;22;20024;-56
2022/09/29 07:19:18;;;;;;;8.70;3.50;;;;;;;14.68;74.84;99528.59;6251022;22;20339;-59
2022/09/29 07:21:46;;;;;;;8.65;3.75;;;;;;;14.91;75.04;99532.16;6274919;22;20012;-58
2022/09/29 07:24:14;;;;;;;7.80;3.58;;;;;;;14.83;73.94;99524.91;6224430;22;20019;-56
2022/09/29 07:26:41;;;;;;;12.07;3.88;;;;;;;15.05;74.17;99535.19;6276589;22;20020;-59
2022/09/29 07:29:09;;;;;;;9.77;3.63;;;;;;;15.10;73.92;99534.09;6277258;22;20019;-56
2022/09/29 07:31:43;;;;;;;11.52;3.55;;;;;;;15.07;73.48;99534.81;6248575;22;20012;-61
2022/09/29 07:34:19;;;;;;;19.30;5.05;;;;;;;15.14;73.63;99538.50;6277146;22;20018;-65
2022/09/29 07:36:46;;;;;;;10.38;4.70;;;;;;;14.99;73.66;99549.75;6248744;22;20015;-65
2022/09/29 07:39:14;;;;;;;9.75;4.38;;;;;;;14.53;73.30;99543.38;6277022;22;20023;-66
2022/09/29 07:41:41;;;;;;;9.65;4.25;;;;;;;14.38;74.00;99538.75;6248039;22;20707;-66
2022/09/29 07:44:08;;;;;;;13.18;4.78;;;;;;;14.00;75.09;99553.38;6276745;22;20023;-66
2022/09/29 07:46:35;;;;;;;12.63;4.70;;;;;;;13.79;77.77;99552.94;6275096;22;20023;-66
2022/09/29 07:49:03;;;;;;;11.07;4.88;;;;;;;14.37;77.13;99551.78;6274482;22;20462;-66
2022/09/29 07:51:31;;;;;;;13.85;5.05;;;;;;;14.54;75.96;99556.06;6274305;22;20574;-65
2022/09/29 07:54:03;;;;;;;11.15;5.10;;;;;;;14.73;75.64;99558.00;6276165;22;20330;-65
2022/09/29 07:56:31;;;;;;;15.93;4.60;;;;;;;14.80;74.96;99564.47;6249809;22;20042;-66
2022/09/29 07:59:01;;;;;;;13.63;5.05;;;;;;;14.44;72.66;99568.56;6252089;22;20027;-66
2022/09/29 08:01:30;;;;;;;15.77;8.07;;;;;;;14.42;76.03;99568.13;6223177;22;20044;-66
2022/09/29 08:03:57;;;;;;;13.40;5.35;;;;;;;14.35;75.60;99573.50;6277606;22;20087;-66
2022/09/29 08:06:25;;;;;;;29.08;18.67;;;;;;;14.35;75.93;99576.28;6275882;22;20016;-67
2022/09/29 08:08:53;;;;;;;19.65;10.35;;;;;;;14.51;75.68;99574.22;6275976;22;20019;-65
2022/09/29 08:11:30;;;;;;;10.32;5.45;;;;;;;14.64;75.44;99578.41;6275601;22;20019;-67
2022/09/29 08:13:59;;;;;;;13.43;5.47;;;;;;;14.44;75.04;99573.28;6277598;22;20019;-65
2022/09/29 08:16:27;;;;;;;13.20;5.22;;;;;;;14.77;75.28;99576.28;6277884;22;20027;-66
2022/09/29 08:18:54;;;;;;;15.85;5.38;;;;;;;14.60;74.20;99583.13;6277940;22;20463;-66
2022/09/29 08:21:21;;;;;;;13.73;4.85;;;;;;;14.72;75.52;99582.13;6274950;22;20016;-66
2022/09/29 08:23:48;;;;;;;11.27;4.78;;;;;;;14.81;74.72;99587.44;6249494;22;20024;-65
2022/09/29 08:26:18;;;;;;;14.15;4.72;;;;;;;14.98;74.66;99593.28;6275326;22;20019;-66
2022/09/29 08:28:52;;;;;;;40.58;7.72;;;;;;;15.08;73.45;99592.66;6250742;22;20023;-65
2022/09/29 08:31:36;;;;;;;11.43;4.55;;;;;;;15.05;73.33;99589.84;6278344;22;20455;-65
2022/09/29 08:34:05;;;;;;;10.15;4.38;;;;;;;14.91;71.70;99593.16;6275671;22;20030;-66
2022/09/29 08:36:33;;;;;;;15.00;5.00;;;;;;;14.82;72.41;99600.16;6251163;22;20024;-66
2022/09/29 08:39:00;;;;;;;18.08;5.53;;;;;;;14.83;73.60;99597.00;6250105;22;20018;-65
2022/09/29 08:41:49;;;;;;;17.27;5.18;;;;;;;15.32;70.60;99591.50;6223113;22;20789;-64
2022/09/29 08:44:45;;;;;;;17.15;4.95;;;;;;;15.04;68.50;99594.59;6223638;22;20019;-65
2022/09/29 08:47:20;;;;;;;8.05;4.40;;;;;;;13.47;72.74;99607.56;6251608;22;20482;-65
2022/09/29 08:49:53;;;;;;;14.07;4.72;;;;;;;13.79;72.51;99608.28;6251860;22;20020;-66
2022/09/29 08:52:30;;;;;;;12.82;4.70;;;;;;;14.14;73.64;99608.28;6275522;22;20012;-66
2022/09/29 08:55:18;;;;;;;8.60;4.43;;;;;;;14.10;72.37;99607.38;6255746;22;20020;-66
2022/09/29 08:57:57;;;;;;;14.23;4.00;;;;;;;14.70;75.46;99617.72;6278651;22;20022;-66
2022/09/29 09:00:37;;;;;;;11.32;3.80;;;;;;;15.07;73.59;99612.47;6251219;22;20027;-66
2022/09/29 09:03:11;;;;;;;;;;;;;;;15.34;73.03;99617.69;6249067;22;20530;-66
2022/09/29 09:05:50;;;;;;;8.20;3.30;;;;;;;15.50;70.91;99612.00;6249644;22;19995;-65
2022/09/29 09:08:36;;;;;;;11.63;3.90;;;;;;;15.76;68.97;99615.59;6278251;22;20030;-66
2022/09/29 09:11:09;;;;;;;8.88;4.03;;;;;;;14.85;68.50;99622.38;6275931;22;20020;-65
2022/09/29 09:14:06;;;;;;;7.15;3.60;;;;;;;15.24;72.43;99615.53;6251529;22;20011;-65
2022/09/29 09:16:51;;;;;;;7.32;3.50;;;;;;;15.52;71.30;99626.31;6276372;22;20459;-67
2022/09/29 09:20:00;;;;;;;9.70;3.75;;;;;;;15.72;71.04;99616.72;6278298;22;20320;-67
2022/09/29 09:22:48;;;;;;;12.17;6.23;;;;;;;15.85;70.41;99622.88;6218657;22;20018;-66
2022/09/29 09:25:27;;;;;;;11.38;3.88;;;;;;;15.38;66.88;99617.75;6278401;22;20019;-65
2022/09/29 09:28:05;;;;;;;9.70;3.70;;;;;;;14.54;68.91;99622.56;6250969;22;20039;-67
2022/09/29 09:31:04;;;;;;;11.00;3.65;;;;;;;14.63;72.46;99621.19;6277560;22;20027;-65
2022/09/29 09:33:56;;;;;;;10.02;3.78;;;;;;;14.77;68.04;99626.19;6227341;22;20043;-67
2022/09/29 09:36:44;;;;;;;10.85;3.80;;;;;;;14.30;69.96;99628.41;6249857;22;20020;-66
2022/09/29 09:39:34;;;;;;;10.68;3.63;;;;;;;14.51;73.61;99629.66;6224460;22;20159;-67
2022/09/29 09:42:06;;;;;;;10.77;4.30;;;;;;;13.79;71.58;99627.66;6275285;22;20023;-68
2022/09/29 09:44:53;;;;;;;10.25;4.07;;;;;;;13.70;72.62;99631.81;6250055;22;20027;-66
2022/09/29 09:47:25;;;;;;;11.63;4.10;;;;;;;14.07;73.74;99630.28;6225337;22;20016;-66
2022/09/29 09:49:57;;;;;;;10.68;4.43;;;;;;;14.15;73.46;99626.47;6276685;22;20023;-67
2022/09/29 09:52:40;;;;;;;12.50;4.10;;;;;;;14.02;70.88;99636.88;6245471;22;20022;-67
2022/09/29 09:55:33;;;;;;;7.75;4.00;;;;;;;13.84;71.74;99646.78;6248068;22;20344;-65
2022/09/29 09:58:27;;;;;;;10.98;4.25;;;;;;;14.22;74.47;99641.28;6276784;22;20023;-69
2022/09/29 10:00:57;;;;;;;11.48;3.92;;;;;;;13.85;71.39;99639.25;6235270;22;20031;-71
2022/09/29 10:03:27;;;;;;;16.27;4.40;;;;;;;13.37;73.25;99655.13;6249623;22;20422;-67
2022/09/29 10:05:54;;;;;;;12.13;4.03;;;;;;;13.78;72.14;99644.63;6250476;22;20019;-66
2022/09/29 10:08:38;;;;;;;8.50;3.70;;;;;;;13.76;70.87;99644.19;6275199;22;20020;-66
2022/09/29 10:11:15;;;;;;;34.53;4.55;;;;;;;14.05;70.73;99641.69;6223941;22;20029;-66
2022/09/29 10:13:42;;;;;;;10.65;4.00;;;;;;;14.21;69.95;99644.44;6249644;22;20015;-66
2022/09/29 10:16:22;;;;;;;10.73;3.53;;;;;;;14.34;69.35;99645.91;6276298;22;20034;-65
2022/09/29 10:18:53;;;;;;;32.15;4.10;;;;;;;14.33;71.31;99644.31;6248876;22;20030;-68
2022/09/29 10:21:27;;;;;;;6.10;3.38;;;;;;;14.45;69.57;99650.50;6250275;22;20027;-67
2022/09/29 10:23:56;;;;;;;8.70;3.72;;;;;;;14.94;69.89;99649.88;6276898;22;20019;-68
2022/09/29 10:26:38;;;;;;;10.82;3.10;;;;;;;15.22;69.77;99651.16;6275704;22;20019;-65
2022/09/29 10:29:36;;;;;;;7.95;3.13;;;;;;;15.48;67.62;99650.47;6249604;22;20033;-69
2022/09/29 10:32:22;;;;;;;6.80;2.60;;;;;;;15.59;66.22;99649.44;6247723;22;20049;-67
2022/09/29 10:34:53;;;;;;;10.85;3.25;;;;;;;15.85;66.32;99645.09;6276505;22;20046;-67
2022/09/29 10:37:34;;;;;;;8.38;3.40;;;;;;;16.06;64.51;99650.94;6275866;22;20016;-67
2022/09/29 10:40:15;;;;;;;11.45;3.67;;;;;;;16.09;63.84;99648.19;6251416;22;20022;-67
2022/09/29 10:42:49;;;;;;;9.73;3.10;;;;;;;16.16;64.06;99650.28;6249292;22;20015;-67
2022/09/29 10:45:26;;;;;;;9.57;3.17;;;;;;;16.03;64.69;99651.69;6274959;22;20458;-66
2022/09/29 10:47:57;;;;;;;8.80;3.38;;;;;;;15.76;62.21;99657.25;6250844;22;20031;-66
2022/09/29 10:50:26;;;;;;;;;;;;;;;15.91;62.91;99654.69;6278187;22;20020;-65
2022/09/29 10:52:55;;;;;;;7.38;2.80;;;;;;;15.78;63.92;99659.66;6257888;22;19915;-66
2022/09/29 10:55:27;;;;;;;7.30;2.80;;;;;;;15.80;65.75;99665.63;6233776;22;20023;-64
2022/09/29 10:57:57;;;;;;;11.00;3.75;;;;;;;15.72;67.75;99656.41;6248738;22;20019;-59
2022/09/29 11:00:33;;;;;;;9.68;4.45;;;;;;;15.61;67.11;99668.50;6199017;22;20023;-61
2022/09/29 11:03:13;;;;;;;14.93;6.13;;;;;;;15.31;66.97;99668.38;6248060;22;20023;-57
2022/09/29 11:05:55;;;;;;;12.20;5.60;;;;;;;15.19;69.70;99670.53;6248318;22;20023;-59
2022/09/29 11:08:26;;;;;;;15.18;5.30;;;;;;;15.17;70.76;99675.63;6246206;22;20482;-57
2022/09/29 11:11:21;;;;;;;8.70;5.25;;;;;;;15.11;71.93;99677.94;6223124;22;20026;-59
2022/09/29 11:13:48;;;;;;;10.90;5.55;;;;;;;15.25;72.54;99677.38;6239128;22;20026;-60
2022/09/29 11:16:36;;;;;;;12.23;5.25;;;;;;;15.18;72.90;99672.50;6249556;22;20559;-59
2022/09/29 11:19:11;;;;;;;7.68;4.32;;;;;;;15.47;70.97;99682.97;6275496;22;20023;-58
2022/09/29 11:21:46;;;;;;;8.07;3.60;;;;;;;15.54;72.42;99685.03;6250568;22;20020;-58
2022/09/29 11:24:54;;;;;;;8.70;4.25;;;;;;;15.35;69.98;99687.84;6249790;22;20023;-58
2022/09/29 11:28:02;;;;;;;6.93;3.13;;;;;;;14.95;66.66;99695.84;6209934;22;20023;-61
2022/09/29 11:30:41;;;;;;;11.95;3.67;;;;;;;14.40;69.17;99710.97;6278254;22;20019;-60
2022/09/29 11:33:21;;;;;;;14.70;4.10;;;;;;;14.43;69.45;99707.44;6252578;22;20026;-60
2022/09/29 11:36:04;;;;;;;10.30;3.38;;;;;;;14.03;70.87;99718.00;6278975;22;20020;-60
2022/09/29 11:38:50;;;;;;;13.30;3.78;;;;;;;13.75;73.30;99720.09;6252525;22;20351;-61
2022/09/29 11:41:24;;;;;;;7.88;3.50;;;;;;;13.68;74.71;99722.69;6251942;22;20020;-59
2022/09/29 11:44:16;;;;;;;10.43;4.05;;;;;;;13.83;75.92;99733.72;6248883;22;20012;-57
2022/09/29 11:47:15;;;;;;;9.75;5.07;;;;;;;13.84;76.86;99729.00;6248012;22;20019;-61
2022/09/29 11:50:25;;;;;;;11.10;4.38;;;;;;;13.79;76.02;99726.53;6275316;22;20015;-59
2022/09/29 11:52:52;;;;;;;;;;;;;;;14.00;77.51;99735.34;6278470;22;20018;-60
2022/09/29 11:55:29;;;;;;;12.07;5.47;;;;;;;13.97;77.39;99731.31;6278344;22;20357;-60
2022/09/29 11:58:05;;;;;;;11.98;5.20;;;;;;;14.26;78.42;99732.81;6251033;22;20075;-59
2022/09/29 12:00:50;;;;;;;9.52;5.00;;;;;;;14.10;76.29;99735.59;6250727;22;20477;-55
2022/09/29 12:03:26;;;;;;;37.63;6.53;;;;;;;14.25;76.75;99737.50;6276603;22;20015;-60